createdAt,value
2022-08-07T00:00:18.778Z,21.00
2022-08-07T00:03:04.727Z,20.90
2022-08-07T00:05:53.969Z,21.00
2022-08-07T00:08:44.231Z,20.80
2022-08-07T00:11:29.974Z,20.80
2022-08-07T00:14:19.103Z,20.70
2022-08-07T00:17:04.577Z,20.70
2022-08-07T00:20:01.588Z,20.60
2022-08-07T00:22:51.751Z,20.50
2022-08-07T00:25:41.514Z,20.50
2022-08-07T00:28:33.551Z,20.60
2022-08-07T00:31:19.497Z,20.60
2022-08-07T00:34:04.735Z,20.60
2022-08-07T00:36:54.195Z,20.60
2022-08-07T00:39:45.160Z,20.70
2022-08-07T00:42:40.094Z,20.70
2022-08-07T00:45:25.497Z,20.80
2022-08-07T00:48:11.360Z,20.60
2022-08-07T00:50:57.252Z,20.50
2022-08-07T00:53:50.273Z,20.40
2022-08-07T00:56:40.771Z,20.40
2022-08-07T00:59:35.304Z,20.50
2022-08-07T01:02:28.728Z,20.50
2022-08-07T01:05:19.162Z,20.40
2022-08-07T01:08:05.199Z,20.40
2022-08-07T01:10:56.542Z,20.40
2022-08-07T01:13:42.327Z,20.40
2022-08-07T01:16:43.179Z,20.40
2022-08-07T01:19:33.665Z,20.40
2022-08-07T01:22:22.905Z,20.40
2022-08-07T01:25:53.612Z,20.30
2022-08-07T01:28:22.094Z,20.20
2022-08-07T01:31:07.990Z,20.20
2022-08-07T01:34:01.839Z,20.30
2022-08-07T01:36:52.555Z,20.30
2022-08-07T01:39:47.540Z,20.20
2022-08-07T01:42:37.628Z,20.30
2022-08-07T01:45:36.253Z,20.30
2022-08-07T01:48:30.418Z,20.30
2022-08-07T01:52:01.522Z,20.20
2022-08-07T01:54:36.457Z,20.30
2022-08-07T01:58:01.015Z,20.20
2022-08-07T02:00:45.409Z,20.20
2022-08-07T02:03:48.603Z,20.20
2022-08-07T02:06:38.590Z,20.20
2022-08-07T02:09:52.278Z,20.20
2022-08-07T02:12:36.067Z,20.10
2022-08-07T02:15:26.404Z,20.00
2022-08-07T02:18:14.148Z,19.70
2022-08-07T02:21:06.384Z,19.70
2022-08-07T02:23:52.369Z,19.80
2022-08-07T02:26:39.274Z,19.90
2022-08-07T02:29:25.385Z,19.90
2022-08-07T02:32:14.372Z,19.90
2022-08-07T02:35:01.232Z,19.90
2022-08-07T02:37:49.589Z,19.90
2022-08-07T02:40:38.307Z,19.90
2022-08-07T02:43:25.930Z,19.70
2022-08-07T02:46:12.686Z,19.70
2022-08-07T02:49:03.275Z,19.70
2022-08-07T02:51:52.168Z,19.60
2022-08-07T02:54:41.350Z,19.60
2022-08-07T02:57:30.976Z,19.60
2022-08-07T03:00:20.096Z,19.60
2022-08-07T03:03:13.584Z,19.50
2022-08-07T03:06:06.796Z,19.50
2022-08-07T03:09:04.885Z,19.40
2022-08-07T03:11:52.416Z,19.40
2022-08-07T03:14:48.389Z,19.30
2022-08-07T03:17:53.450Z,19.30
2022-08-07T03:20:40.575Z,19.40
2022-08-07T03:23:33.826Z,19.30
2022-08-07T03:26:35.335Z,19.30
2022-08-07T03:29:38.582Z,19.20
2022-08-07T03:32:38.753Z,19.20
2022-08-07T03:35:26.418Z,19.20
2022-08-07T03:38:13.478Z,19.10
2022-08-07T03:41:00.331Z,19.10
2022-08-07T03:43:56.958Z,19.00
2022-08-07T03:47:11.522Z,19.00
2022-08-07T03:49:52.388Z,18.90
2022-08-07T03:52:40.793Z,18.90
2022-08-07T03:55:53.107Z,18.90
2022-08-07T03:59:08.325Z,18.80
2022-08-07T04:01:45.833Z,18.80
2022-08-07T04:04:32.783Z,18.80
2022-08-07T04:07:19.184Z,18.80
2022-08-07T04:10:08.429Z,18.70
2022-08-07T04:13:00.934Z,18.70
2022-08-07T04:15:49.071Z,18.60
2022-08-07T04:18:59.452Z,18.60
2022-08-07T04:21:40.071Z,18.70
2022-08-07T04:24:44.435Z,18.70
2022-08-07T04:27:35.660Z,18.70
2022-08-07T04:30:43.904Z,18.70
2022-08-07T04:33:31.011Z,18.60
2022-08-07T04:36:22.748Z,18.60
2022-08-07T04:39:11.541Z,18.60
2022-08-07T04:41:57.486Z,18.50
2022-08-07T04:44:54.677Z,18.40
2022-08-07T04:48:04.695Z,18.40
2022-08-07T04:51:09.073Z,18.40
2022-08-07T04:54:06.964Z,18.40
2022-08-07T04:58:12.435Z,18.40
2022-08-07T05:00:30.625Z,18.30
2022-08-07T05:04:06.943Z,18.30
2022-08-07T05:07:20.729Z,18.30
2022-08-07T05:10:16.234Z,18.40
2022-08-07T05:14:54.299Z,18.40
2022-08-07T05:16:23.952Z,18.40
2022-08-07T05:19:13.290Z,18.40
2022-08-07T05:22:02.006Z,18.30
2022-08-07T05:24:55.519Z,18.40
2022-08-07T05:28:02.703Z,18.40
2022-08-07T05:30:49.545Z,18.50
2022-08-07T05:33:37.733Z,18.50
2022-08-07T05:36:30.270Z,18.60
2022-08-07T05:40:17.291Z,18.60
2022-08-07T05:42:34.367Z,18.40
2022-08-07T05:45:46.293Z,18.60
2022-08-07T05:48:29.114Z,18.50
2022-08-07T05:51:15.653Z,18.60
2022-08-07T05:54:09.217Z,18.60
2022-08-07T05:57:01.070Z,18.70
2022-08-07T05:59:55.976Z,18.70
2022-08-07T06:02:48.146Z,18.70
2022-08-07T06:05:34.613Z,18.70
2022-08-07T06:08:29.795Z,18.70
2022-08-07T06:11:17.077Z,18.80
2022-08-07T06:14:12.853Z,18.80
2022-08-07T06:17:08.337Z,18.80
2022-08-07T06:20:03.791Z,18.90
2022-08-07T06:23:02.416Z,18.90
2022-08-07T06:25:58.523Z,19.00
2022-08-07T06:28:55.598Z,19.00
2022-08-07T06:31:49.800Z,19.00
2022-08-07T06:34:35.769Z,19.10
2022-08-07T06:37:21.289Z,19.00
2022-08-07T06:40:17.803Z,19.00
2022-08-07T06:43:21.419Z,19.00
2022-08-07T06:46:11.561Z,19.20
2022-08-07T06:48:57.968Z,19.20
2022-08-07T06:51:49.875Z,19.20
2022-08-07T06:55:34.546Z,19.30
2022-08-07T06:57:47.759Z,19.50
2022-08-07T07:00:42.404Z,19.30
2022-08-07T07:03:48.089Z,19.40
2022-08-07T07:06:34.539Z,19.40
2022-08-07T07:09:48.847Z,19.50
2022-08-07T07:12:48.948Z,19.50
2022-08-07T07:15:43.169Z,19.50
2022-08-07T07:18:48.316Z,19.70
2022-08-07T07:21:40.241Z,19.70
2022-08-07T07:24:56.875Z,19.80
2022-08-07T07:28:03.185Z,19.90
2022-08-07T07:31:17.287Z,20.10
2022-08-07T07:34:10.545Z,20.10
2022-08-07T07:37:14.728Z,20.20
2022-08-07T07:40:14.863Z,20.30
2022-08-07T07:43:15.215Z,20.40
2022-08-07T07:46:38.063Z,20.50
2022-08-07T07:50:29.663Z,20.60
2022-08-07T07:52:20.738Z,20.70
2022-08-07T07:55:10.954Z,20.80
2022-08-07T07:57:58.818Z,20.90
2022-08-07T08:00:47.800Z,21.00
2022-08-07T08:04:11.019Z,21.10
2022-08-07T08:06:51.969Z,21.20
2022-08-07T08:09:52.205Z,21.30
2022-08-07T08:12:58.922Z,21.30
2022-08-07T08:15:59.133Z,21.40
2022-08-07T08:18:50.557Z,21.60
2022-08-07T08:22:03.402Z,21.80
2022-08-07T08:25:25.034Z,21.90
2022-08-07T08:28:24.085Z,22.10
2022-08-07T08:31:59.179Z,22.30
2022-08-07T08:34:38.551Z,22.60
2022-08-07T08:37:59.623Z,22.70
2022-08-07T08:40:34.158Z,22.80
2022-08-07T08:43:42.261Z,22.90
2022-08-07T08:46:48.947Z,23.10
2022-08-07T09:33:57.346Z,25.30
2022-08-07T09:37:03.046Z,25.20
2022-08-07T09:40:30.105Z,25.00
2022-08-07T09:44:05.934Z,25.30
2022-08-07T09:47:50.788Z,25.20
2022-08-07T09:50:42.847Z,25.50
2022-08-07T09:53:40.451Z,25.80
2022-08-07T09:56:47.860Z,26.30
2022-08-07T09:59:46.469Z,26.50
2022-08-07T10:02:55.819Z,26.70
2022-08-07T10:06:06.460Z,26.70
2022-08-07T10:09:42.732Z,26.90
2022-08-07T10:12:52.919Z,27.00
2022-08-07T10:15:54.895Z,27.00
2022-08-07T10:19:11.254Z,27.20
2022-08-07T10:22:15.717Z,27.30
2022-08-07T10:25:09.482Z,27.50
2022-08-07T10:28:30.998Z,27.80
2022-08-07T10:31:31.472Z,27.90
2022-08-07T10:34:53.094Z,27.70
2022-08-07T10:38:35.177Z,27.80
2022-08-07T10:41:51.985Z,28.10
2022-08-07T10:45:08.161Z,28.20
2022-08-07T10:48:18.096Z,28.50
2022-08-07T10:51:57.178Z,28.90
2022-08-07T10:54:55.222Z,28.80
2022-08-07T10:58:32.291Z,28.90
2022-08-07T11:01:35.534Z,28.80
2022-08-07T11:04:53.525Z,28.80
2022-08-07T11:07:59.128Z,29.00
2022-08-07T11:11:20.325Z,29.30
2022-08-07T11:14:44.284Z,29.60
2022-08-07T11:17:43.310Z,29.80
2022-08-07T11:20:43.133Z,29.80
2022-08-07T11:23:38.535Z,29.90
2022-08-07T11:26:50.148Z,30.10
2022-08-07T11:29:48.361Z,30.40
2022-08-07T11:32:58.551Z,30.40
2022-08-07T11:36:10.038Z,30.60
2022-08-07T11:38:56.564Z,31.00
2022-08-07T11:42:01.955Z,31.30
2022-08-07T11:45:23.706Z,31.40
2022-08-07T11:48:44.168Z,31.40
2022-08-07T11:51:54.081Z,31.60
2022-08-07T11:55:13.013Z,31.80
2022-08-07T11:58:16.467Z,32.00
2022-08-07T12:01:20.006Z,32.20
2022-08-07T12:04:23.553Z,32.30
2022-08-07T12:07:39.253Z,32.40
2022-08-07T12:10:33.961Z,32.00
2022-08-07T12:13:45.105Z,32.20
2022-08-07T12:16:44.430Z,32.40
2022-08-07T12:20:09.491Z,32.60
2022-08-07T12:24:04.964Z,32.70
2022-08-07T12:26:53.385Z,32.60
2022-08-07T12:29:53.723Z,32.80
2022-08-07T12:32:42.825Z,32.80
2022-08-07T12:35:36.267Z,33.10
2022-08-07T12:38:37.003Z,33.30
2022-08-07T12:41:39.550Z,33.10
2022-08-07T12:44:33.368Z,33.10
2022-08-07T12:47:27.002Z,33.30
2022-08-07T12:50:48.889Z,33.40
2022-08-07T12:54:36.920Z,33.50
2022-08-07T12:57:20.339Z,33.70
2022-08-07T13:00:16.461Z,33.80
2022-08-07T13:03:54.970Z,34.00
2022-08-07T13:07:04.449Z,34.00
2022-08-07T13:10:21.994Z,34.20
2022-08-07T13:13:48.458Z,34.00
2022-08-07T13:16:37.292Z,34.00
2022-08-07T13:19:51.773Z,34.00
2022-08-07T13:22:45.428Z,34.20
2022-08-07T13:25:50.919Z,34.20
2022-08-07T13:29:12.816Z,34.00
2022-08-07T13:32:06.280Z,33.90
2022-08-07T13:35:59.738Z,33.90
2022-08-07T13:39:00.801Z,33.20
2022-08-07T13:41:54.858Z,33.20
2022-08-07T13:44:41.653Z,33.50
2022-08-07T13:48:06.258Z,33.70
2022-08-07T13:50:45.309Z,33.80
2022-08-07T13:53:59.668Z,33.70
2022-08-07T13:56:52.081Z,33.90
2022-08-07T13:59:45.611Z,34.20
2022-08-07T14:02:45.766Z,34.50
2022-08-07T14:05:38.248Z,34.40
2022-08-07T14:08:25.438Z,34.60
2022-08-07T14:11:17.526Z,34.70
2022-08-07T14:14:08.106Z,34.50
2022-08-07T14:16:57.174Z,34.60
2022-08-07T14:20:41.912Z,34.70
2022-08-07T14:23:09.135Z,34.50
2022-08-07T14:26:32.051Z,34.40
2022-08-07T14:30:05.871Z,34.50
2022-08-07T14:32:29.764Z,34.60
2022-08-07T14:35:44.956Z,34.80
2022-08-07T14:38:33.336Z,34.80
2022-08-07T14:41:34.009Z,34.80
2022-08-07T14:44:52.720Z,34.70
2022-08-07T14:47:41.743Z,34.80
2022-08-07T14:50:29.092Z,34.80
2022-08-07T14:54:08.558Z,34.10
2022-08-07T14:56:33.256Z,34.20
2022-08-07T15:00:03.779Z,34.40
2022-08-07T15:02:31.806Z,34.40
2022-08-07T15:05:23.636Z,34.30
2022-08-07T15:08:12.538Z,34.40
2022-08-07T15:11:08.278Z,34.00
2022-08-07T15:13:59.000Z,33.80
2022-08-07T15:17:00.539Z,33.70
2022-08-07T15:23:20.435Z,34.10
2022-08-07T15:26:08.900Z,34.40
2022-08-07T15:28:59.720Z,34.40
2022-08-07T15:32:05.521Z,34.50
2022-08-07T15:34:57.479Z,34.70
2022-08-07T15:38:04.330Z,34.70
2022-08-07T15:41:00.382Z,34.70
2022-08-07T15:44:04.757Z,34.50
2022-08-07T15:47:03.465Z,34.60
2022-08-07T15:50:05.831Z,34.60
2022-08-07T15:52:52.711Z,34.70
2022-08-07T15:55:53.588Z,34.70
2022-08-07T15:58:57.153Z,34.20
2022-08-07T16:02:02.556Z,34.10
2022-08-07T16:04:49.344Z,34.20
2022-08-07T16:08:30.264Z,34.20
2022-08-07T16:10:54.379Z,34.20
2022-08-07T16:13:59.439Z,34.00
2022-08-07T16:18:02.888Z,33.60
2022-08-07T16:21:57.046Z,33.30
2022-08-07T16:24:34.799Z,33.00
2022-08-07T16:27:40.714Z,32.90
2022-08-07T16:30:34.213Z,32.90
2022-08-07T16:34:02.679Z,32.80
2022-08-07T16:37:03.243Z,32.90
2022-08-07T16:40:32.117Z,32.80
2022-08-07T16:43:23.704Z,32.50
2022-08-07T16:47:05.683Z,32.30
2022-08-07T16:50:27.340Z,32.20
2022-08-07T16:53:15.026Z,32.10
2022-08-07T16:56:37.473Z,32.00
2022-08-07T16:59:57.870Z,31.90
2022-08-07T17:03:18.621Z,31.80
2022-08-07T17:06:44.285Z,31.60
2022-08-07T17:10:30.050Z,31.50
2022-08-07T17:13:20.264Z,31.50
2022-08-07T17:16:43.729Z,31.30
2022-08-07T17:20:01.487Z,31.10
2022-08-07T17:23:31.901Z,30.90
2022-08-07T17:26:29.904Z,30.70
2022-08-07T17:30:15.971Z,30.80
2022-08-07T17:34:10.256Z,30.70
2022-08-07T17:36:26.058Z,30.60
2022-08-07T17:39:57.607Z,30.60
2022-08-07T17:43:15.000Z,30.60
2022-08-07T17:46:13.305Z,30.40
2022-08-07T17:49:09.213Z,30.20
2022-08-07T17:52:06.215Z,30.10
2022-08-07T17:55:59.922Z,29.90
2022-08-07T17:58:40.518Z,29.70
2022-08-07T18:01:48.549Z,29.50
2022-08-07T18:05:21.079Z,29.30
2022-08-07T18:08:23.957Z,29.10
2022-08-07T18:12:06.676Z,28.90
2022-08-07T18:14:50.978Z,28.80
2022-08-07T18:18:45.762Z,28.70
2022-08-07T18:21:42.023Z,28.50
2022-08-07T18:24:33.655Z,28.40
2022-08-07T18:27:45.612Z,28.20
2022-08-07T18:30:43.278Z,28.00
2022-08-07T18:34:06.464Z,27.90
2022-08-07T18:38:57.455Z,27.90
2022-08-07T18:41:08.155Z,27.70
2022-08-07T18:44:25.886Z,27.60
2022-08-07T18:47:21.032Z,27.60
2022-08-07T18:50:38.677Z,27.70
2022-08-07T18:54:27.779Z,27.60
2022-08-07T18:57:59.720Z,27.60
2022-08-07T19:01:00.843Z,27.50
2022-08-07T19:03:58.976Z,27.50
2022-08-07T19:06:54.780Z,27.40
2022-08-07T19:10:18.221Z,27.30
2022-08-07T19:13:21.814Z,27.30
2022-08-07T19:17:04.585Z,27.30
2022-08-07T19:20:03.281Z,27.20
2022-08-07T19:23:57.445Z,27.10
2022-08-07T19:27:09.308Z,27.00
2022-08-07T19:31:04.154Z,27.00
2022-08-07T19:32:59.593Z,26.90
2022-08-07T19:35:53.737Z,26.90
2022-08-07T19:38:53.567Z,26.80
2022-08-07T19:42:08.092Z,26.70
2022-08-07T19:44:57.299Z,26.60
2022-08-07T19:47:50.702Z,26.60
2022-08-07T19:50:45.346Z,26.40
2022-08-07T19:54:34.051Z,26.40
2022-08-07T19:57:51.849Z,26.40
2022-08-07T20:00:12.460Z,26.30
2022-08-07T20:03:35.549Z,26.30
2022-08-07T20:06:30.864Z,26.20
2022-08-07T20:10:34.339Z,26.20
2022-08-07T20:12:34.734Z,26.10
2022-08-07T20:15:33.019Z,26.10
2022-08-07T20:18:33.421Z,26.00
2022-08-07T20:21:22.537Z,26.00
2022-08-07T20:24:14.734Z,25.90
2022-08-07T20:27:02.857Z,25.90
2022-08-07T20:29:58.145Z,25.80
2022-08-07T20:32:46.592Z,25.80
2022-08-07T20:35:51.735Z,25.70
2022-08-07T20:38:53.285Z,25.60
2022-08-07T20:41:50.648Z,25.60
2022-08-07T20:44:41.834Z,25.50
2022-08-07T20:47:56.632Z,25.50
2022-08-07T20:50:39.656Z,25.30
2022-08-07T20:54:02.967Z,25.20
2022-08-07T20:56:41.911Z,25.10
2022-08-07T21:00:07.236Z,25.00
2022-08-07T21:02:58.598Z,24.80
2022-08-07T21:06:21.788Z,24.80
2022-08-07T21:09:15.052Z,24.60
2022-08-07T21:12:03.501Z,24.60
2022-08-07T21:14:53.606Z,24.50
2022-08-07T21:18:03.404Z,24.40
2022-08-07T21:20:56.143Z,24.40
2022-08-07T21:23:57.345Z,24.30
2022-08-07T21:27:25.611Z,24.30
2022-08-07T21:30:14.380Z,24.30
2022-08-07T21:33:16.474Z,24.20
2022-08-07T21:36:31.916Z,24.20
2022-08-07T21:39:51.869Z,24.00
2022-08-07T21:42:52.906Z,24.00
2022-08-07T21:46:10.385Z,23.90
2022-08-07T21:49:14.417Z,23.90
2022-08-07T21:52:13.009Z,23.90
2022-08-07T21:55:28.161Z,23.90
2022-08-07T21:58:54.335Z,23.90
2022-08-07T22:02:11.091Z,23.80
2022-08-07T22:04:56.325Z,23.80
2022-08-07T22:07:59.004Z,23.70
2022-08-07T22:10:49.695Z,23.60
2022-08-07T22:13:52.014Z,23.50
2022-08-07T22:16:49.105Z,23.30
2022-08-07T22:19:46.316Z,23.10
2022-08-07T22:22:57.198Z,23.10
2022-08-07T22:26:05.842Z,22.90
2022-08-07T22:29:03.207Z,22.70
2022-08-07T22:32:05.515Z,22.80
2022-08-07T22:34:53.369Z,22.80
2022-08-07T22:38:07.274Z,23.00
2022-08-07T22:41:03.406Z,23.10
2022-08-07T22:43:56.635Z,23.20
2022-08-07T22:47:09.233Z,23.20
2022-08-07T22:50:34.024Z,23.30
2022-08-07T22:54:05.173Z,23.20
2022-08-07T22:57:15.163Z,23.20
2022-08-07T23:00:12.032Z,23.30
2022-08-07T23:03:23.833Z,23.20
2022-08-07T23:06:52.065Z,23.20
2022-08-07T23:10:37.428Z,23.20
2022-08-07T23:13:48.691Z,23.10
2022-08-07T23:17:15.841Z,23.10
2022-08-07T23:20:52.848Z,23.00
2022-08-07T23:24:16.887Z,22.90
2022-08-07T23:27:33.469Z,22.90
2022-08-07T23:30:36.977Z,22.80
2022-08-07T23:34:36.007Z,22.80
2022-08-07T23:37:19.271Z,22.80
2022-08-07T23:40:43.087Z,22.70
2022-08-07T23:43:55.477Z,22.50
2022-08-07T23:47:07.475Z,22.40
2022-08-07T23:50:11.942Z,22.50
2022-08-07T23:53:21.305Z,22.30
2022-08-07T23:56:26.997Z,22.20
